Beaver Islander — WT5906 — position and weather

sailwx.info

Track history (hours):
 
Tides and Currents Weather Stations Pressure Air Temp Water Temp Dewpoint Dewpoint Depression Visibility Wind Speed Wind Dir Waves Ship Positions

Beaver Islander

Owner: BEAVER ISLAND BOAT CO, CHARLEVOIX, MI. More information available from US FCC via Universal Licensing System and Coast Guard Vessel Documentation Center.

Last reported at 2014-Sep-01 23:32 UTC. Time now 2014-Oct-25 21:21 UTC.
Position N 45°44' W 085°29'.
Warning: this ship's position is 53 days out of date.

Length 28 m; draft 3 m.

Type: Passenger vessel. MMSI: 366936060.

Date/timePositionNaut miles runAvg speedWind from/ knotsBaromVisibWave heightAir tempDewpointWater temp
2014-Sep-01 23:32N 45°44' W 085°29'1313.3
2014-Sep-01 22:33N 45°31' W 085°24'1313.0
2014-Sep-01 21:33N 45°19' W 085°16'1 0.6
2014-Sep-01 20:33N 45°19' W 085°15'1212.3
2014-Sep-01 19:33N 45°30' W 085°22'1313.2
2014-Sep-01 18:33N 45°43' W 085°29'3 2.5
2014-Sep-01 17:30N 45°45' W 085°31'0 0.0
2014-Sep-01 16:33N 45°45' W 085°31'  
2014-Aug-24 23:31N 45°44' W 085°29'1313.3
2014-Aug-24 22:33N 45°32' W 085°23'1413.5
2014-Aug-24 21:33N 45°19' W 085°16'0 0.3
2014-Aug-24 20:33N 45°19' W 085°16'1212.3
2014-Aug-24 19:33N 45°31' W 085°22'1313.1
2014-Aug-24 18:34N 45°43' W 085°29'1 0.1
2014-Aug-23 23:33N 45°44' W 085°30'1313.1
2014-Aug-23 22:34N 45°31' W 085°25'1313.1
2014-Aug-23 21:34N 45°20' W 085°16'1 0.6
2014-Aug-23 20:34N 45°19' W 085°16'1312.6
2014-Aug-23 19:34N 45°31' W 085°22'14 0.7
2014-Aug-22 23:33N 45°44' W 085°30'  
Track history (hours):
 
Tides and Currents Weather Stations Pressure Air Temp Water Temp Dewpoint Dewpoint Depression Visibility Wind Speed Wind Dir Waves Ship Positions

Beaver Islander

Owner: BEAVER ISLAND BOAT CO, CHARLEVOIX, MI. More information available from US FCC via Universal Licensing System and Coast Guard Vessel Documentation Center.

Last reported at 2014-Sep-01 23:32 UTC. Time now 2014-Oct-25 21:21 UTC.
Position N 45°44' W 085°29'.
Warning: this ship's position is 53 days out of date.

Length 28 m; draft 3 m.

Type: Passenger vessel. MMSI: 366936060.

Date/timePositionNaut miles runAvg speedWind from/ knotsBaromVisibWave heightAir tempDewpointWater temp
2014-Sep-01 23:32N 45°44' W 085°29'1313.3
2014-Sep-01 22:33N 45°31' W 085°24'1313.0
2014-Sep-01 21:33N 45°19' W 085°16'1 0.6
2014-Sep-01 20:33N 45°19' W 085°15'1212.3
2014-Sep-01 19:33N 45°30' W 085°22'1313.2
2014-Sep-01 18:33N 45°43' W 085°29'3 2.5
2014-Sep-01 17:30N 45°45' W 085°31'0 0.0
2014-Sep-01 16:33N 45°45' W 085°31'  
2014-Aug-24 23:31N 45°44' W 085°29'1313.3
2014-Aug-24 22:33N 45°32' W 085°23'1413.5
2014-Aug-24 21:33N 45°19' W 085°16'0 0.3
2014-Aug-24 20:33N 45°19' W 085°16'1212.3
2014-Aug-24 19:33N 45°31' W 085°22'1313.1
2014-Aug-24 18:34N 45°43' W 085°29'1 0.1
2014-Aug-23 23:33N 45°44' W 085°30'1313.1
2014-Aug-23 22:34N 45°31' W 085°25'1313.1
2014-Aug-23 21:34N 45°20' W 085°16'1 0.6
2014-Aug-23 20:34N 45°19' W 085°16'1312.6
2014-Aug-23 19:34N 45°31' W 085°22'14 0.7
2014-Aug-22 23:33N 45°44' W 085°30'  

Dump ship's entire track history